Wetterdaten: Sonntag, 30.11.2014
Datum Zeit Temp. A. Feuchte A. Luftdruck Regen Wind Richtung Richtung Sonnenschein ET UV Solar Taupunkt Windchill Windben Empfang
30.11.2014 00:00 1,0 C 79 % 1015,8 hPa 0,0 l/m 9,0 km/h (2 Bft) O-NO 78 0 min 0,000 mm 0,0 UV-I 0 W/m -2,2 C -1,5 C 11,9 km/h (2 Bft) 0,00 %
30.11.2014 00:15 1,0 C 79 % 1015,8 hPa 0,0 l/m 9,7 km/h (2 Bft) O 101 0 min 0,000 mm 0,0 UV-I 0 W/m -2,2 C -2,1 C 15,8 km/h (3 Bft) 0,00 %
30.11.2014 00:30 1,0 C 79 % 1015,8 hPa 0,0 l/m 6,5 km/h (2 Bft) O 101 0 min 0,000 mm 0,0 UV-I 0 W/m -2,2 C 0,9 C 11,9 km/h (2 Bft) 0,00 %
30.11.2014 00:45 1,0 C 79 % 1015,7 hPa 0,0 l/m 5,8 km/h (2 Bft) O 87 0 min 0,000 mm 0,0 UV-I 0 W/m -2,2 C 1,0 C 7,9 km/h (2 Bft) 0,00 %
30.11.2014 01:00 1,0 C 79 % 1015,7 hPa 0,0 l/m 9,0 km/h (2 Bft) O-NO 71 0 min 0,000 mm 0,0 UV-I 0 W/m -2,2 C -1,5 C 11,9 km/h (2 Bft) 0,00 %
30.11.2014 01:15 1,0 C 79 % 1015,7 hPa 0,0 l/m 11,9 km/h (2 Bft) O-SO 108 0 min 0,000 mm 0,0 UV-I 0 W/m -2,2 C -3,8 C 15,8 km/h (3 Bft) 0,00 %
30.11.2014 01:30 0,9 C 78 % 1015,9 hPa 0,0 l/m 14,4 km/h (3 Bft) O-SO 122 0 min 0,000 mm 0,0 UV-I 0 W/m -2,5 C -5,5 C 19,8 km/h (3 Bft) 0,00 %
30.11.2014 01:45 1,0 C 79 % 1015,9 hPa 0,0 l/m 9,0 km/h (2 Bft) SO 134 0 min 0,000 mm 0,0 UV-I 0 W/m -2,2 C -1,5 C 11,9 km/h (2 Bft) 0,00 %
30.11.2014 02:00 1,0 C 79 % 1015,9 hPa 0,0 l/m 5,4 km/h (1 Bft) S 175 0 min 0,000 mm 0,0 UV-I 0 W/m -2,2 C 1,0 C 7,9 km/h (2 Bft) 0,00 %
30.11.2014 02:15 1,0 C 78 % 1015,8 hPa 0,0 l/m 7,2 km/h (2 Bft) S 169 0 min 0,000 mm 0,0 UV-I 0 W/m -2,4 C 0,2 C 11,9 km/h (2 Bft) 0,00 %
30.11.2014 02:30 1,0 C 79 % 1015,7 hPa 0,0 l/m 5,4 km/h (1 Bft) W-SW 254 0 min 0,000 mm 0,0 UV-I 0 W/m -2,2 C 1,0 C 11,9 km/h (2 Bft) 0,00 %
30.11.2014 02:45 0,9 C 79 % 1015,6 hPa 0,0 l/m 3,2 km/h (1 Bft) S 169 0 min 0,000 mm 0,0 UV-I 0 W/m -2,3 C 0,9 C 7,9 km/h (2 Bft) 0,00 %
30.11.2014 03:00 0,9 C 79 % 1015,5 hPa 0,0 l/m 1,8 km/h (1 Bft) O 101 0 min 0,000 mm 0,0 UV-I 0 W/m -2,3 C 0,9 C 4,0 km/h (1 Bft) 0,00 %
30.11.2014 03:15 0,8 C 79 % 1015,2 hPa 0,0 l/m 14,4 km/h (3 Bft) O-SO 123 0 min 0,000 mm 0,0 UV-I 0 W/m -2,4 C -5,7 C 19,8 km/h (3 Bft) 0,00 %
30.11.2014 03:30 0,7 C 79 % 1015,1 hPa 0,0 l/m 5,8 km/h (2 Bft) S 174 0 min 0,000 mm 0,0 UV-I 0 W/m -2,5 C 0,7 C 7,9 km/h (2 Bft) 0,00 %
30.11.2014 03:45 0,7 C 79 % 1015,2 hPa 0,0 l/m 7,9 km/h (2 Bft) SO 137 0 min 0,000 mm 0,0 UV-I 0 W/m -2,5 C -0,8 C 15,8 km/h (3 Bft) 0,00 %
30.11.2014 04:00 0,7 C 79 % 1015,1 hPa 0,0 l/m 18,4 km/h (3 Bft) O 98 0 min 0,000 mm 0,0 UV-I 0 W/m -2,5 C -8,0 C 28,1 km/h (4 Bft) 0,00 %
30.11.2014 04:15 0,7 C 79 % 1014,7 hPa 0,0 l/m 16,9 km/h (3 Bft) O 85 0 min 0,000 mm 0,0 UV-I 0 W/m -2,5 C -7,2 C 19,8 km/h (3 Bft) 0,00 %
30.11.2014 04:30 0,7 C 79 % 1015,2 hPa 0,0 l/m 7,2 km/h (2 Bft) S-SW 202 0 min 0,000 mm 0,0 UV-I 0 W/m -2,5 C -0,1 C 11,9 km/h (2 Bft) 0,00 %
30.11.2014 04:45 0,7 C 79 % 1014,9 hPa 0,0 l/m 7,9 km/h (2 Bft) N-NW 327 0 min 0,000 mm 0,0 UV-I 0 W/m -2,5 C -0,8 C 15,8 km/h (3 Bft) 0,00 %
30.11.2014 05:00 0,7 C 79 % 1014,9 hPa 0,0 l/m 4,0 km/h (1 Bft) O-SO 113 0 min 0,000 mm 0,0 UV-I 0 W/m -2,5 C 0,7 C 7,9 km/h (2 Bft) 0,00 %
30.11.2014 05:15 0,7 C 80 % 1014,7 hPa 0,0 l/m 15,8 km/h (3 Bft) O 86 0 min 0,000 mm 0,0 UV-I 0 W/m -2,3 C -6,6 C 19,8 km/h (3 Bft) 0,00 %
30.11.2014 05:30 0,7 C 80 % 1014,7 hPa 0,0 l/m 9,7 km/h (2 Bft) N-NO 21 0 min 0,000 mm 0,0 UV-I 0 W/m -2,3 C -2,4 C 11,9 km/h (2 Bft) 0,00 %
30.11.2014 05:45 0,6 C 80 % 1014,9 hPa 0,0 l/m 2,9 km/h (1 Bft) O-SO 110 0 min 0,000 mm 0,0 UV-I 0 W/m -2,4 C 0,6 C 4,0 km/h (1 Bft) 0,00 %
30.11.2014 06:00 0,6 C 80 % 1014,6 hPa 0,0 l/m 6,5 km/h (2 Bft) O-SO 122 0 min 0,000 mm 0,0 UV-I 0 W/m -2,4 C 0,5 C 11,9 km/h (2 Bft) 0,00 %
30.11.2014 06:15 0,6 C 80 % 1015,0 hPa 0,0 l/m 7,9 km/h (2 Bft) SO 141 0 min 0,000 mm 0,0 UV-I 0 W/m -2,4 C -0,9 C 11,9 km/h (2 Bft) 0,00 %
30.11.2014 06:30 0,7 C 80 % 1014,8 hPa 0,0 l/m 7,9 km/h (2 Bft) S-SO 162 0 min 0,000 mm 0,0 UV-I 0 W/m -2,3 C -0,8 C 15,8 km/h (3 Bft) 0,00 %
30.11.2014 06:45 0,7 C 80 % 1014,7 hPa 0,0 l/m 14,8 km/h (3 Bft) O 94 0 min 0,000 mm 0,0 UV-I 0 W/m -2,3 C -6,0 C 19,8 km/h (3 Bft) 0,00 %
30.11.2014 07:00 0,7 C 81 % 1014,8 hPa 0,0 l/m 6,5 km/h (2 Bft) S 181 0 min 0,000 mm 0,0 UV-I 0 W/m -2,2 C 0,6 C 11,9 km/h (2 Bft) 0,00 %
30.11.2014 07:15 0,7 C 81 % 1015,1 hPa 0,0 l/m 4,0 km/h (1 Bft) O-SO 115 0 min 0,000 mm 0,0 UV-I 0 W/m -2,2 C 0,7 C 7,9 km/h (2 Bft) 0,00 %
30.11.2014 07:30 0,7 C 81 % 1014,9 hPa 0,0 l/m 3,2 km/h (1 Bft) O-SO 112 0 min 0,000 mm 0,0 UV-I 0 W/m -2,2 C 0,7 C 4,0 km/h (1 Bft) 0,00 %
30.11.2014 07:45 0,7 C 81 % 1015,1 hPa 0,0 l/m 20,5 km/h (4 Bft) O 97 0 min 0,000 mm 0,0 UV-I 0 W/m -2,2 C -9,0 C 32,0 km/h (5 Bft) 0,00 %
30.11.2014 08:00 0,7 C 81 % 1014,9 hPa 0,0 l/m 14,4 km/h (3 Bft) O 98 0 min 0,000 mm 0,0 UV-I 0 W/m -2,2 C -5,8 C 19,8 km/h (3 Bft) 0,00 %
30.11.2014 08:15 0,7 C 81 % 1015,1 hPa 0,0 l/m 5,4 km/h (1 Bft) SO 133 0 min 0,000 mm 0,0 UV-I 0 W/m -2,2 C 0,7 C 7,9 km/h (2 Bft) 0,00 %
30.11.2014 08:30 0,7 C 81 % 1014,9 hPa 0,0 l/m 3,2 km/h (1 Bft) O-SO 122 0 min 0,000 mm 0,0 UV-I 30 W/m -2,2 C 0,7 C 11,9 km/h (2 Bft) 0,00 %
30.11.2014 08:45 0,8 C 81 % 1014,9 hPa 0,0 l/m 2,2 km/h (1 Bft) N 354 0 min 0,000 mm 0,0 UV-I 2 W/m -2,1 C 0,8 C 4,0 km/h (1 Bft) 0,00 %
30.11.2014 09:00 0,8 C 81 % 1014,7 hPa 0,0 l/m 8,3 km/h (2 Bft) SO 135 0 min 0,000 mm 0,0 UV-I 13 W/m -2,1 C -1,1 C 15,8 km/h (3 Bft) 0,00 %
30.11.2014 09:15 0,9 C 81 % 1014,8 hPa 0,0 l/m 2,9 km/h (1 Bft) O-SO 102 0 min 0,000 mm 0,0 UV-I 45 W/m -2,0 C 0,9 C 7,9 km/h (2 Bft) 0,00 %
30.11.2014 09:30 0,9 C 81 % 1014,5 hPa 0,0 l/m 5,8 km/h (2 Bft) S 183 0 min 0,000 mm 1,0 UV-I 102 W/m -2,0 C 0,9 C 7,9 km/h (2 Bft) 0,00 %
30.11.2014 09:45 1,0 C 81 % 1014,4 hPa 0,0 l/m 5,4 km/h (1 Bft) SW 226 0 min 0,000 mm 0,0 UV-I 75 W/m -1,9 C 1,0 C 11,9 km/h (2 Bft) 0,00 %
30.11.2014 10:00 1,1 C 81 % 1014,3 hPa 0,0 l/m 6,8 km/h (2 Bft) O-SO 112 0 min 0,000 mm 1,0 UV-I 116 W/m -1,8 C 0,7 C 7,9 km/h (2 Bft) 0,00 %
30.11.2014 10:15 1,1 C 81 % 1014,4 hPa 0,0 l/m 4,3 km/h (1 Bft) O-NO 74 0 min 0,000 mm 1,0 UV-I 137 W/m -1,8 C 1,1 C 7,9 km/h (2 Bft) 0,00 %
30.11.2014 10:30 1,1 C 81 % 1014,5 hPa 0,0 l/m 11,5 km/h (2 Bft) O-SO 106 0 min 0,000 mm 1,0 UV-I 141 W/m -1,8 C -3,4 C 15,8 km/h (3 Bft) 0,00 %
30.11.2014 10:45 1,2 C 81 % 1014,5 hPa 0,0 l/m 4,7 km/h (1 Bft) O-SO 110 0 min 0,000 mm 1,0 UV-I 105 W/m -1,7 C 1,2 C 7,9 km/h (2 Bft) 0,00 %
30.11.2014 11:00 1,2 C 81 % 1014,4 hPa 0,0 l/m 13,0 km/h (3 Bft) O 84 0 min 0,000 mm 1,0 UV-I 149 W/m -1,7 C -4,3 C 15,8 km/h (3 Bft) 0,00 %
30.11.2014 11:15 1,3 C 81 % 1014,4 hPa 0,0 l/m 9,4 km/h (2 Bft) O 80 0 min 0,000 mm 0,0 UV-I 93 W/m -1,6 C -1,5 C 15,8 km/h (3 Bft) 0,00 %
30.11.2014 11:30 1,3 C 80 % 1014,4 hPa 0,0 l/m 7,9 km/h (2 Bft) O 90 0 min 0,000 mm 1,0 UV-I 99 W/m -1,8 C -0,2 C 11,9 km/h (2 Bft) 0,00 %
30.11.2014 11:45 1,4 C 79 % 1014,7 hPa 0,0 l/m 4,3 km/h (1 Bft) O 93 0 min 0,000 mm 1,0 UV-I 113 W/m -1,8 C 1,4 C 7,9 km/h (2 Bft) 0,00 %
30.11.2014 12:00 1,5 C 79 % 1014,4 hPa 0,0 l/m 8,3 km/h (2 Bft) S 173 0 min 0,000 mm 1,0 UV-I 153 W/m -1,7 C -0,3 C 11,9 km/h (2 Bft) 0,00 %
30.11.2014 12:15 1,5 C 79 % 1014,1 hPa 0,0 l/m 10,8 km/h (2 Bft) O-SO 120 15 min 0,000 mm 1,0 UV-I 257 W/m -1,7 C -2,4 C 19,8 km/h (3 Bft) 0,00 %
30.11.2014 12:30 1,6 C 79 % 1013,7 hPa 0,0 l/m 2,2 km/h (1 Bft) S 175 0 min 0,000 mm 1,0 UV-I 148 W/m -1,6 C 1,6 C 7,9 km/h (2 Bft) 0,00 %
30.11.2014 12:45 1,4 C 79 % 1013,9 hPa 0,0 l/m 2,9 km/h (1 Bft) O-SO 109 0 min 0,000 mm 0,0 UV-I 43 W/m -1,8 C 1,4 C 4,0 km/h (1 Bft) 0,00 %
30.11.2014 13:00 1,5 C 80 % 1013,6 hPa 0,0 l/m 14,4 km/h (3 Bft) O-SO 108 0 min 0,000 mm 1,0 UV-I 99 W/m -1,6 C -4,8 C 15,8 km/h (3 Bft) 0,00 %
30.11.2014 13:15 1,5 C 80 % 1013,4 hPa 0,0 l/m 1,8 km/h (1 Bft) O-SO 120 0 min 0,000 mm 1,0 UV-I 123 W/m -1,6 C 1,5 C 4,0 km/h (1 Bft) 0,00 %
30.11.2014 13:30 1,7 C 79 % 1013,1 hPa 0,0 l/m 1,8 km/h (1 Bft) S 174 15 min 0,000 mm 1,0 UV-I 196 W/m -1,5 C 1,7 C 4,0 km/h (1 Bft) 0,00 %
30.11.2014 13:45 1,7 C 79 % 1013,1 hPa 0,0 l/m 9,0 km/h (2 Bft) O-SO 105 0 min 0,000 mm 1,0 UV-I 118 W/m -1,5 C -0,8 C 15,8 km/h (3 Bft) 0,00 %
30.11.2014 14:00 1,7 C 79 % 1013,2 hPa 0,0 l/m 7,9 km/h (2 Bft) O 92 0 min 0,000 mm 0,0 UV-I 66 W/m -1,5 C 0,2 C 11,9 km/h (2 Bft) 0,00 %
30.11.2014 14:15 1,7 C 79 % 1013,2 hPa 0,0 l/m 6,5 km/h (2 Bft) SO 131 0 min 0,000 mm 1,0 UV-I 99 W/m -1,5 C 1,6 C 7,9 km/h (2 Bft) 0,00 %
30.11.2014 14:30 1,7 C 79 % 1013,2 hPa 0,0 l/m 6,5 km/h (2 Bft) SW 216 0 min 0,000 mm 0,0 UV-I 98 W/m -1,5 C 1,6 C 11,9 km/h (2 Bft) 0,00 %
30.11.2014 14:45 1,7 C 79 % 1012,9 hPa 0,0 l/m 4,7 km/h (1 Bft) S 173 0 min 0,000 mm 0,0 UV-I 12 W/m -1,5 C 1,7 C 7,9 km/h (2 Bft) 0,00 %
30.11.2014 15:00 1,6 C 79 % 1013,1 hPa 0,0 l/m 6,8 km/h (2 Bft) S 172 0 min 0,000 mm 0,0 UV-I 21 W/m -1,6 C 1,2 C 7,9 km/h (2 Bft) 0,00 %
30.11.2014 15:15 1,6 C 79 % 1012,9 hPa 0,0 l/m 4,7 km/h (1 Bft) O-SO 113 0 min 0,000 mm 0,0 UV-I 0 W/m -1,6 C 1,6 C 7,9 km/h (2 Bft) 0,00 %
30.11.2014 15:30 1,6 C 79 % 1012,9 hPa 0,0 l/m 6,5 km/h (2 Bft) O-SO 104 0 min 0,000 mm 0,0 UV-I 0 W/m -1,6 C 1,5 C 11,9 km/h (2 Bft) 0,00 %
30.11.2014 15:45 1,5 C 79 % 1012,9 hPa 0,0 l/m 7,9 km/h (2 Bft) O 91 0 min 0,000 mm 0,0 UV-I 0 W/m -1,7 C 0,0 C 11,9 km/h (2 Bft) 0,00 %
30.11.2014 16:00 1,5 C 79 % 1012,6 hPa 0,0 l/m 6,5 km/h (2 Bft) O 99 0 min 0,000 mm 0,0 UV-I 0 W/m -1,7 C 1,4 C 11,9 km/h (2 Bft) 0,00 %
30.11.2014 16:15 1,5 C 79 % 1012,3 hPa 0,0 l/m 14,8 km/h (3 Bft) O 98 0 min 0,000 mm 0,0 UV-I 0 W/m -1,7 C -5,0 C 19,8 km/h (3 Bft) 0,00 %
30.11.2014 16:30 1,5 C 79 % 1012,6 hPa 0,0 l/m 6,5 km/h (2 Bft) S 173 0 min 0,000 mm 0,0 UV-I 0 W/m -1,7 C 1,4 C 11,9 km/h (2 Bft) 0,00 %
30.11.2014 16:45 1,5 C 79 % 1012,3 hPa 0,0 l/m 10,4 km/h (2 Bft) O-SO 122 0 min 0,000 mm 0,0 UV-I 0 W/m -1,7 C -2,1 C 15,8 km/h (3 Bft) 0,00 %
30.11.2014 17:00 1,5 C 79 % 1012,4 hPa 0,0 l/m 9,4 km/h (2 Bft) O-NO 78 0 min 0,000 mm 0,0 UV-I 0 W/m -1,7 C -1,3 C 11,9 km/h (2 Bft) 0,00 %
30.11.2014 17:15 1,5 C 79 % 1012,8 hPa 0,0 l/m 4,7 km/h (1 Bft) S 172 0 min 0,000 mm 0,0 UV-I 0 W/m -1,7 C 1,5 C 11,9 km/h (2 Bft) 0,00 %
30.11.2014 17:30 1,5 C 79 % 1012,8 hPa 0,0 l/m 3,2 km/h (1 Bft) S-SW 208 0 min 0,000 mm 0,0 UV-I 0 W/m -1,7 C 1,5 C 7,9 km/h (2 Bft) 0,00 %
30.11.2014 17:45 1,5 C 79 % 1012,4 hPa 0,0 l/m 13,3 km/h (3 Bft) SO 135 0 min 0,000 mm 0,0 UV-I 0 W/m -1,7 C -4,1 C 19,8 km/h (3 Bft) 0,00 %
30.11.2014 18:00 1,5 C 79 % 1012,3 hPa 0,0 l/m 3,2 km/h (1 Bft) S 173 0 min 0,000 mm 0,0 UV-I 0 W/m -1,7 C 1,5 C 7,9 km/h (2 Bft) 0,00 %
30.11.2014 18:15 1,5 C 79 % 1012,5 hPa 0,0 l/m 15,5 km/h (3 Bft) O-SO 107 0 min 0,000 mm 0,0 UV-I 0 W/m -1,7 C -5,4 C 19,8 km/h (3 Bft) 0,00 %
30.11.2014 18:30 1,5 C 79 % 1012,3 hPa 0,0 l/m 16,6 km/h (3 Bft) O-SO 113 0 min 0,000 mm 0,0 UV-I 0 W/m -1,7 C -6,0 C 24,1 km/h (4 Bft) 0,00 %
30.11.2014 18:45 1,5 C 80 % 1012,1 hPa 0,0 l/m 1,8 km/h (1 Bft) O-SO 114 0 min 0,000 mm 0,0 UV-I 0 W/m -1,6 C 1,5 C 4,0 km/h (1 Bft) 0,00 %
30.11.2014 19:00 1,5 C 80 % 1012,2 hPa 0,0 l/m 19,1 km/h (3 Bft) O-SO 104 0 min 0,000 mm 0,0 UV-I 0 W/m -1,6 C -7,3 C 24,1 km/h (4 Bft) 0,00 %
30.11.2014 19:15 1,4 C 80 % 1012,1 hPa 0,0 l/m 7,9 km/h (2 Bft) O-SO 107 0 min 0,000 mm 0,0 UV-I 0 W/m -1,7 C -0,1 C 11,9 km/h (2 Bft) 0,00 %
30.11.2014 19:30 1,4 C 81 % 1012,0 hPa 0,0 l/m 10,8 km/h (2 Bft) O-SO 120 0 min 0,000 mm 0,0 UV-I 0 W/m -1,5 C -2,5 C 15,8 km/h (3 Bft) 0,00 %
30.11.2014 19:45 1,4 C 81 % 1011,9 hPa 0,0 l/m 11,9 km/h (2 Bft) O-SO 105 0 min 0,000 mm 0,0 UV-I 0 W/m -1,5 C -3,3 C 15,8 km/h (3 Bft) 0,00 %
30.11.2014 20:00 1,4 C 81 % 1011,9 hPa 0,0 l/m 9,4 km/h (2 Bft) O 93 0 min 0,000 mm 0,0 UV-I 0 W/m -1,5 C -1,4 C 11,9 km/h (2 Bft) 0,00 %
30.11.2014 20:15 1,4 C 81 % 1011,7 hPa 0,0 l/m 16,9 km/h (3 Bft) SO 135 0 min 0,000 mm 0,0 UV-I 0 W/m -1,5 C -6,3 C 24,1 km/h (4 Bft) 0,00 %
30.11.2014 20:30 1,4 C 81 % 1011,6 hPa 0,0 l/m 10,8 km/h (2 Bft) O 94 0 min 0,000 mm 0,0 UV-I 0 W/m -1,5 C -2,5 C 15,8 km/h (3 Bft) 0,00 %
30.11.2014 20:45 1,4 C 81 % 1011,7 hPa 0,0 l/m 12,2 km/h (2 Bft) O-SO 122 0 min 0,000 mm 0,0 UV-I 0 W/m -1,5 C -3,5 C 24,1 km/h (4 Bft) 0,00 %
30.11.2014 21:00 1,4 C 81 % 1011,6 hPa 0,0 l/m 16,6 km/h (3 Bft) O 81 0 min 0,000 mm 0,0 UV-I 0 W/m -1,5 C -6,2 C 19,8 km/h (3 Bft) 0,00 %
30.11.2014 21:15 1,4 C 81 % 1011,2 hPa 0,0 l/m 15,8 km/h (3 Bft) O 85 0 min 0,000 mm 0,0 UV-I 0 W/m -1,5 C -5,7 C 24,1 km/h (4 Bft) 0,00 %
30.11.2014 21:30 1,3 C 81 % 1011,5 hPa 0,0 l/m 6,5 km/h (2 Bft) O-NO 67 0 min 0,000 mm 0,0 UV-I 0 W/m -1,6 C 1,2 C 11,9 km/h (2 Bft) 0,00 %
30.11.2014 21:45 1,3 C 81 % 1011,2 hPa 0,0 l/m 2,2 km/h (1 Bft) NO 39 0 min 0,000 mm 0,0 UV-I 0 W/m -1,6 C 1,3 C 4,0 km/h (1 Bft) 0,00 %
30.11.2014 22:00 1,3 C 81 % 1011,1 hPa 0,0 l/m 24,5 km/h (4 Bft) O 94 0 min 0,000 mm 0,0 UV-I 0 W/m -1,6 C -9,8 C 28,1 km/h (4 Bft) 0,00 %
30.11.2014 22:15 1,3 C 81 % 1009,9 hPa 0,0 l/m 10,8 km/h (2 Bft) O 89 0 min 0,000 mm 0,0 UV-I 0 W/m -1,6 C -2,6 C 11,9 km/h (2 Bft) 0,00 %
30.11.2014 22:30 1,3 C 81 % 1009,6 hPa 0,0 l/m 9,0 km/h (2 Bft) S 187 0 min 0,000 mm 0,0 UV-I 0 W/m -1,6 C -1,2 C 15,8 km/h (3 Bft) 0,00 %
30.11.2014 22:45 1,2 C 81 % 1010,8 hPa 0,0 l/m 18,4 km/h (3 Bft) O 95 0 min 0,000 mm 0,0 UV-I 0 W/m -1,7 C -7,3 C 28,1 km/h (4 Bft) 0,00 %
30.11.2014 23:00 1,2 C 81 % 1010,6 hPa 0,0 l/m 18,0 km/h (3 Bft) N 357 0 min 0,000 mm 0,0 UV-I 0 W/m -1,7 C -7,1 C 32,0 km/h (5 Bft) 0,00 %
30.11.2014 23:15 1,2 C 81 % 1010,5 hPa 0,0 l/m 17,3 km/h (3 Bft) O-SO 107 0 min 0,000 mm 0,0 UV-I 0 W/m -1,7 C -6,8 C 19,8 km/h (3 Bft) 0,00 %
30.11.2014 23:30 1,3 C 81 % 1010,3 hPa 0,0 l/m 4,7 km/h (1 Bft) O-SO 117 0 min 0,000 mm 0,0 UV-I 0 W/m -1,6 C 1,3 C 11,9 km/h (2 Bft) 0,00 %
30.11.2014 23:45 1,2 C 80 % 1010,0 hPa 0,0 l/m 11,5 km/h (2 Bft) O 95 0 min 0,000 mm 0,0 UV-I 0 W/m -1,9 C -3,3 C 15,8 km/h (3 Bft) 0,00 %
_ Min-Zeit 05:45 01:30 22:30 - 03:00 - - - - - - 03:30 22:00 03:00 00:00
Minimum _ 0,6 C 78 % 1009,6 hPa - 1,8 km/h (1 Bft) - - - - - - -2,5 C -9,8 C 4,0 km/h (1 Bft) 0,00 %
_ Max-Zeit 13:30 07:00 01:30 00:00 22:00 - - 12:15 00:00 09:30 12:15 19:30 13:30 07:45 00:00
Maximum _ 1,7 C 81 % 1015,9 hPa 0,0 l/m 24,5 km/h
O (4 Bft)
- - 15 min 0,000 mm 1,0 UV-I 257 W/m -1,5 C 1,7 C 32,0 km/h
O (5 Bft)
0,00 %
Durchschnitt _ 1,2 C 80 % 1013,6 hPa #0,0 l/m 8,9 km/h (2 Bft) O-SO - #30 min. #0,000 mm 1,0 UV-I 98 W/m -1,9 C -1,5 C 13,6 km/h (3 Bft) 0,00 %